Terminal Aerodrome Forecast
Issued by NWS

Home | Current Version | Previous Version | Text Only | Print | Product List | Glossary Off
Versions: 1 2 3 4 5 6 7 8 9 10 11 12 13 14 15 16 17 18

000
FTUS43 KMPX 152340
TAFAXN
TAF
KAXN 152340Z 1600/1624 14010KT P6SM OVC100
     FM160600 12012KT P6SM VCSH OVC040
     FM160900 13010KT P6SM SHRA VCTS OVC015CB
     FM161200 14008KT 4SM SHRA BR OVC008
     FM162000 15007KT 5SM BR OVC012 PROB30 1621/1624 3SM TSRA
      OVC020CB=

USA.gov is the U.S. government's official web portal to all federal, state and local government web resources and services.